Time;durP1;ratioP1;P1;durP2;ratioP2;P2;SDS_P1;SDS_P2;PMS_P1;PMS_P2;Temp;Humidity;BMP_temperature;BMP_pressure;BME280_temperature;BME280_humidity;BME280_pressure;Samples;Min_cycle;Max_cycle;Signal;HPM_P1;HPM_P2
2021/09/14 00:01:18;;;;;;;20.80;16.45;;;;;;;12.66;74.56;97443.57;1726737;82;25756;-93
2021/09/14 00:03:44;;;;;;;21.62;15.53;;;;;;;12.56;74.65;97439.47;1727025;83;25276;-93
2021/09/14 00:06:11;;;;;;;18.92;15.68;;;;;;;12.51;74.87;97441.20;1727099;83;27479;-96
2021/09/14 00:08:37;;;;;;;23.52;15.63;;;;;;;12.52;75.01;97440.98;1727600;81;25323;-95
2021/09/14 00:11:04;;;;;;;19.90;16.73;;;;;;;12.51;75.04;97435.79;1726744;82;26642;-94
2021/09/14 00:13:31;;;;;;;18.98;16.17;;;;;;;12.50;75.08;97439.02;1715052;82;26353;-94
2021/09/14 00:15:57;;;;;;;22.22;17.10;;;;;;;12.50;75.08;97443.08;1740122;81;25286;-96
2021/09/14 00:18:24;;;;;;;20.57;16.67;;;;;;;12.50;75.08;97440.37;1713261;82;27617;-92
2021/09/14 00:20:50;;;;;;;23.12;16.23;;;;;;;12.51;75.07;97447.45;1714450;82;25228;-91
2021/09/14 00:23:17;;;;;;;19.05;16.75;;;;;;;12.49;75.07;97441.42;1701094;83;25257;-96
2021/09/14 00:25:43;;;;;;;20.30;16.62;;;;;;;12.47;75.07;97448.11;1715665;82;25798;-95
2021/09/14 00:28:10;;;;;;;22.32;16.85;;;;;;;12.45;75.24;97452.91;1699717;84;25251;-96
2021/09/14 00:30:37;;;;;;;21.00;16.02;;;;;;;12.44;75.22;97446.66;1742957;81;27490;-95
2021/09/14 00:33:04;;;;;;;22.98;16.80;;;;;;;12.43;75.30;97452.33;1711452;82;25330;-96
2021/09/14 00:35:30;;;;;;;19.48;16.07;;;;;;;12.39;75.36;97455.99;1738564;81;25264;-94
2021/09/14 00:37:57;;;;;;;24.65;18.55;;;;;;;12.41;75.48;97457.13;1727623;81;25683;-96
2021/09/14 00:40:23;;;;;;;19.98;16.32;;;;;;;12.42;75.62;97463.68;1728261;82;25279;-96
2021/09/14 00:42:50;;;;;;;16.55;13.93;;;;;;;12.44;75.70;97465.61;1715314;82;27418;-96
2021/09/14 00:45:16;;;;;;;21.37;15.30;;;;;;;12.46;75.75;97463.52;1719338;81;25753;-92
2021/09/14 00:47:43;;;;;;;16.32;14.43;;;;;;;12.46;75.71;97455.39;1727577;81;25804;-96
2021/09/14 00:50:10;;;;;;;17.65;14.98;;;;;;;12.47;75.77;97451.64;1727652;82;25823;-96
2021/09/14 00:52:37;;;;;;;19.17;16.05;;;;;;;12.47;75.88;97457.05;1727735;81;25263;-93
2021/09/14 00:55:05;;;;;;;19.23;16.07;;;;;;;12.48;76.00;97455.17;1728312;81;28172;-96
2021/09/14 00:57:31;;;;;;;22.42;17.15;;;;;;;12.51;76.10;97454.74;1724307;82;25908;-96
2021/09/14 00:59:58;;;;;;;21.35;16.62;;;;;;;12.51;76.17;97452.86;1712246;82;25705;-96
2021/09/14 01:02:25;;;;;;;20.52;16.30;;;;;;;12.50;76.20;97451.20;1728645;81;25700;-94
2021/09/14 01:04:52;;;;;;;22.30;15.80;;;;;;;12.53;76.27;97448.06;1730329;81;25836;-93
2021/09/14 01:07:18;;;;;;;19.90;15.98;;;;;;;12.55;76.33;97441.08;1709236;81;27407;-96
2021/09/14 01:09:47;;;;;;;22.37;15.85;;;;;;;12.56;76.34;97446.23;1726812;81;25347;-96
2021/09/14 01:12:14;;;;;;;24.00;16.45;;;;;;;12.59;76.38;97451.73;1710979;81;25291;-93
2021/09/14 01:14:54;;;;;;;22.07;17.15;;;;;;;12.58;76.38;97444.14;1728097;81;25744;-94
2021/09/14 01:17:21;;;;;;;24.75;17.75;;;;;;;12.54;76.38;97445.66;1730491;81;25343;-94
2021/09/14 01:19:48;;;;;;;22.90;16.95;;;;;;;12.55;76.50;97441.08;1730122;81;27596;-96
2021/09/14 01:22:15;;;;;;;23.75;18.30;;;;;;;12.56;76.53;97446.23;1731421;82;25204;-96
2021/09/14 01:24:43;;;;;;;22.93;18.42;;;;;;;12.59;76.54;97438.20;1730843;81;25804;-92
2021/09/14 01:27:11;;;;;;;27.45;19.20;;;;;;;12.61;76.53;97442.88;1728589;81;25697;-89
2021/09/14 01:32:22;;;;;;;25.05;19.12;;;;;;;12.62;76.53;97441.30;1700836;82;27432;-91
2021/09/14 01:34:49;;;;;;;26.80;19.20;;;;;;;12.63;76.53;97451.08;1720492;81;25795;-96
2021/09/14 01:37:15;;;;;;;26.45;20.45;;;;;;;12.61;76.52;97446.94;1728738;82;25450;-96
2021/09/14 01:39:42;;;;;;;22.02;18.92;;;;;;;12.60;76.54;97445.27;1721718;82;25847;-95
2021/09/14 01:42:08;;;;;;;24.72;19.27;;;;;;;12.60;76.62;97442.05;1714164;83;25638;-93
2021/09/14 01:44:35;;;;;;;22.13;18.57;;;;;;;12.60;76.65;97440.69;1710020;82;27441;-95
2021/09/14 01:47:02;;;;;;;25.92;19.55;;;;;;;12.61;76.65;97446.41;1711295;82;25321;-93
2021/09/14 01:49:28;;;;;;;25.95;20.68;;;;;;;12.61;76.62;97445.06;1700482;83;25216;-96
2021/09/14 01:51:55;;;;;;;24.82;19.23;;;;;;;12.60;76.65;97446.11;1680293;84;25817;-96
2021/09/14 01:54:21;;;;;;;24.57;18.42;;;;;;;12.60;76.66;97450.69;1700215;83;25237;-96
2021/09/14 01:56:48;;;;;;;26.48;20.00;;;;;;;12.59;76.68;97447.16;1700435;84;27578;-96
2021/09/14 01:59:15;;;;;;;24.57;18.65;;;;;;;12.57;76.69;97442.48;1700771;84;25249;-92
2021/09/14 02:01:46;;;;;;;32.95;20.10;;;;;;;12.58;76.74;97447.37;1699370;84;25315;-88
2021/09/14 02:42:23;;;;;;;31.87;22.45;;;;;;;12.40;77.53;97444.12;1740806;81;25678;-92
2021/09/14 03:00:38;;;;;;;33.60;22.10;;;;;;;12.36;77.93;97451.02;1739972;81;25758;-95
2021/09/14 03:03:05;;;;;;;31.75;21.77;;;;;;;12.37;77.91;97445.91;1741075;81;28365;-95
2021/09/14 03:05:32;;;;;;;32.35;22.37;;;;;;;12.36;77.82;97448.83;1740577;81;26493;-94
2021/09/14 03:07:58;;;;;;;37.65;22.50;;;;;;;12.35;77.78;97446.64;1740466;81;25696;-95
2021/09/14 03:10:25;;;;;;;36.50;23.85;;;;;;;12.34;77.79;97444.98;1740503;82;25825;-95
2021/09/14 03:12:51;;;;;;;34.95;23.25;;;;;;;12.33;77.83;97441.14;1740547;81;25350;-96
2021/09/14 03:15:18;;;;;;;34.53;23.62;;;;;;;12.34;77.86;97443.63;1740464;81;27322;-95
2021/09/14 03:17:44;;;;;;;36.73;23.35;;;;;;;12.36;77.88;97450.18;1740592;81;25800;-96
2021/09/14 03:20:12;;;;;;;35.10;24.95;;;;;;;12.35;77.88;97445.30;1740480;81;25764;-96
2021/09/14 03:22:39;;;;;;;37.80;23.60;;;;;;;12.36;77.89;97450.18;1740454;82;25778;-96
2021/09/14 03:25:07;;;;;;;34.98;23.55;;;;;;;12.33;77.93;97443.85;1737744;81;25276;-96
2021/09/14 03:27:34;;;;;;;36.00;22.62;;;;;;;12.29;77.97;97443.48;1727957;81;27440;-95
2021/09/14 03:30:01;;;;;;;33.15;22.45;;;;;;;12.26;78.04;97437.16;1740500;81;25291;-95
2021/09/14 03:32:28;;;;;;;29.12;21.65;;;;;;;12.24;78.08;97443.31;1740788;81;25509;-96
2021/09/14 03:34:54;;;;;;;29.02;21.93;;;;;;;12.18;78.14;97439.63;1741433;81;25784;-96
2021/09/14 03:37:21;;;;;;;32.25;23.00;;;;;;;12.19;78.26;97444.52;1740926;81;25469;-96
2021/09/14 03:39:47;;;;;;;34.33;21.62;;;;;;;12.21;78.37;97441.03;1740657;81;27260;-95
2021/09/14 03:42:14;;;;;;;33.95;22.80;;;;;;;12.24;78.41;97443.31;1741161;81;25904;-96
2021/09/14 03:44:40;;;;;;;40.38;22.77;;;;;;;12.25;78.45;97436.33;1719239;83;25826;-96
2021/09/14 03:47:07;;;;;;;41.28;23.38;;;;;;;12.24;78.46;97436.02;1713966;83;25929;-96
2021/09/14 03:49:34;;;;;;;34.70;22.58;;;;;;;12.25;78.46;97435.50;1701841;83;25765;-94
2021/09/14 03:52:00;;;;;;;33.55;22.90;;;;;;;12.26;78.45;97431.74;1709321;83;27459;-96
2021/09/14 03:54:27;;;;;;;31.25;21.07;;;;;;;12.27;78.46;97432.05;1696172;82;25531;-92
2021/09/14 03:56:54;;;;;;;36.20;22.02;;;;;;;12.25;78.45;97434.97;1712915;83;25284;-96
2021/09/14 03:59:21;;;;;;;31.45;20.92;;;;;;;12.25;78.54;97439.55;1711305;82;25753;-90
2021/09/14 04:01:52;;;;;;;36.70;21.10;;;;;;;12.24;78.61;97434.67;1740916;82;25280;-96
2021/09/14 04:04:24;;;;;;;26.93;18.67;;;;;;;12.24;78.68;97444.14;1740636;82;27613;-96
2021/09/14 04:09:13;;;;;;;24.80;20.32;;;;;;;12.28;78.78;97439.64;1662746;82;25619;-90
2021/09/14 04:11:39;;;;;;;24.37;19.73;;;;;;;12.29;78.82;97450.25;1725511;81;26484;-92
2021/09/14 04:14:06;;;;;;;29.15;19.73;;;;;;;12.30;78.87;97439.73;1725460;81;25271;-95
2021/09/14 04:16:32;;;;;;;22.42;18.17;;;;;;;12.32;78.89;97448.44;1725553;81;27430;-92
2021/09/14 04:18:59;;;;;;;28.00;18.95;;;;;;;12.32;78.92;97441.67;1726256;81;25705;-96
2021/09/14 04:21:25;;;;;;;23.07;17.95;;;;;;;12.32;78.90;97448.44;1740367;82;25746;-94
2021/09/14 04:23:52;;;;;;;25.95;18.35;;;;;;;12.34;78.94;97442.80;1714005;83;25689;-92
2021/09/14 04:26:18;;;;;;;21.23;17.65;;;;;;;12.36;79.01;97452.37;1708654;83;25699;-95
2021/09/14 04:28:45;;;;;;;26.20;21.20;;;;;;;12.37;79.01;97455.37;1696165;82;27354;-94
2021/09/14 04:31:12;;;;;;;29.45;19.35;;;;;;;12.38;79.05;97452.98;1740359;82;25642;-95
2021/09/14 04:33:38;;;;;;;28.73;19.80;;;;;;;12.39;79.03;97452.45;1706930;82;25726;-94
2021/09/14 04:36:05;;;;;;;23.95;20.05;;;;;;;12.41;79.04;97452.55;1740454;82;25785;-94
2021/09/14 04:38:32;;;;;;;19.65;17.17;;;;;;;12.41;79.03;97456.61;1740485;82;25264;-95
2021/09/14 04:40:58;;;;;;;21.40;17.82;;;;;;;12.40;79.06;97460.36;1740334;82;27407;-94
2021/09/14 04:43:25;;;;;;;21.80;17.17;;;;;;;12.37;79.03;97463.50;1740294;82;25682;-94
2021/09/14 04:45:51;;;;;;;21.85;16.32;;;;;;;12.39;79.05;97465.98;1726757;82;26308;-95
2021/09/14 04:48:18;;;;;;;26.05;16.87;;;;;;;12.40;79.11;97465.77;1725371;81;25972;-93
2021/09/14 04:50:44;;;;;;;20.57;16.42;;;;;;;12.40;79.04;97464.94;1740358;82;25895;-94
2021/09/14 04:53:11;;;;;;;20.23;15.68;;;;;;;12.38;79.03;97466.52;1740271;82;27192;-93
2021/09/14 04:55:38;;;;;;;18.67;15.93;;;;;;;12.32;78.97;97467.94;1740360;82;25740;-92
2021/09/14 04:58:04;;;;;;;18.57;14.23;;;;;;;12.28;79.01;97467.54;1740276;82;25705;-94
2021/09/14 05:00:31;;;;;;;21.55;15.53;;;;;;;12.26;79.11;97463.70;1727179;82;25709;-92
2021/09/14 05:02:58;;;;;;;17.82;15.23;;;;;;;12.25;79.09;97469.33;1740394;82;25241;-94
2021/09/14 05:05:24;;;;;;;19.98;15.63;;;;;;;12.24;79.12;97466.31;1706615;82;27548;-94
2021/09/14 05:07:51;;;;;;;19.32;16.23;;;;;;;12.24;79.18;97469.02;1740294;82;25772;-93
2021/09/14 05:10:18;;;;;;;20.20;16.27;;;;;;;12.27;79.28;97464.53;1727128;83;25823;-93
2021/09/14 05:12:44;;;;;;;21.68;16.90;;;;;;;12.30;79.28;97466.80;1740117;82;25774;-92
2021/09/14 05:15:11;;;;;;;21.80;17.73;;;;;;;12.34;79.33;97476.11;1740526;82;25677;-94
2021/09/14 05:17:38;;;;;;;22.75;17.45;;;;;;;12.39;79.33;97483.06;1740437;82;27350;-95
2021/09/14 05:20:06;;;;;;;29.80;19.32;;;;;;;12.41;79.33;97478.78;1740220;82;25697;-94
2021/09/14 05:22:34;;;;;;;26.90;18.60;;;;;;;12.43;79.36;97486.16;1740057;82;25801;-93
2021/09/14 05:25:03;;;;;;;28.27;19.62;;;;;;;12.44;79.44;97481.03;1727018;81;25770;-93
2021/09/14 05:27:30;;;;;;;26.35;19.65;;;;;;;12.44;79.42;97491.33;1740060;82;25493;-93
2021/09/14 05:29:56;;;;;;;23.00;17.98;;;;;;;12.42;79.41;97492.10;1740065;82;27404;-94
2021/09/14 05:32:23;;;;;;;24.07;18.55;;;;;;;12.44;79.47;97487.80;1740068;82;25316;-93
2021/09/14 05:34:51;;;;;;;20.27;17.32;;;;;;;12.43;79.50;97484.29;1726614;82;25801;-95
2021/09/14 05:37:18;;;;;;;23.65;19.05;;;;;;;12.42;79.50;97482.62;1726685;82;25927;-96
2021/09/14 05:39:46;;;;;;;26.68;18.87;;;;;;;12.44;79.53;97481.86;1740445;82;25757;-96
2021/09/14 05:42:12;;;;;;;21.12;16.90;;;;;;;12.47;79.57;97488.71;1692009;82;27593;-96
2021/09/14 05:44:39;;;;;;;20.48;17.02;;;;;;;12.51;79.58;97483.17;1694477;84;25296;-96
2021/09/14 05:47:05;;;;;;;20.72;17.50;;;;;;;12.54;79.55;97482.21;1695726;83;25276;-96
2021/09/14 05:49:32;;;;;;;21.10;16.70;;;;;;;12.57;79.58;97480.39;1685233;83;25674;-94
2021/09/14 05:51:59;;;;;;;23.52;17.10;;;;;;;12.62;79.53;97483.27;1688646;84;25295;-94
2021/09/14 05:54:26;;;;;;;22.52;18.12;;;;;;;12.65;79.52;97481.17;1691875;84;27400;-96
2021/09/14 05:56:53;;;;;;;26.12;18.92;;;;;;;12.66;79.47;97486.37;1688654;84;25791;-96
2021/09/14 05:59:19;;;;;;;27.40;19.15;;;;;;;12.63;79.42;97480.88;1690767;84;25826;-96
2021/09/14 06:01:46;;;;;;;29.40;19.55;;;;;;;12.65;79.54;97486.59;1668171;84;25886;-96
2021/09/14 06:04:12;;;;;;;32.98;20.52;;;;;;;12.69;79.64;97487.27;1668631;84;25270;-95
2021/09/14 06:06:41;;;;;;;25.75;19.05;;;;;;;12.74;79.69;97481.19;1672048;84;27569;-96
2021/09/14 06:09:07;;;;;;;28.25;20.00;;;;;;;12.77;79.69;97489.70;1675376;84;25752;-94
2021/09/14 06:11:34;;;;;;;28.70;19.55;;;;;;;12.82;79.83;97485.78;1690677;84;25711;-92
2021/09/14 06:14:03;;;;;;;27.50;19.10;;;;;;;12.88;79.91;97487.61;1689167;84;25814;-88
2021/09/14 06:16:30;;;;;;;32.42;21.15;;;;;;;12.94;79.94;97483.16;1671787;84;25795;-94
2021/09/14 06:18:56;;;;;;;31.75;20.23;;;;;;;12.99;79.93;97487.39;1688240;84;27378;-94
2021/09/14 06:21:23;;;;;;;33.73;20.60;;;;;;;13.06;79.92;97488.14;1684835;84;25301;-95
2021/09/14 06:23:49;;;;;;;34.75;20.70;;;;;;;13.09;79.93;97487.70;1694806;84;25691;-94
2021/09/14 06:26:16;;;;;;;38.33;21.30;;;;;;;13.17;79.94;97489.30;1674392;84;26484;-90
2021/09/14 06:28:42;;;;;;;33.20;19.35;;;;;;;13.24;79.88;97494.14;1675987;84;26165;-95
2021/09/14 06:31:09;;;;;;;35.43;22.22;;;;;;;13.28;79.90;97488.02;1676052;84;27369;-92
2021/09/14 06:33:38;;;;;;;34.00;21.35;;;;;;;13.36;79.89;97484.20;1694474;84;26624;-95
2021/09/14 06:36:04;;;;;;;38.67;21.25;;;;;;;13.42;79.79;97487.86;1695122;83;25260;-96
2021/09/14 06:38:31;;;;;;;35.13;21.05;;;;;;;13.45;79.81;97485.53;1683171;83;25735;-96
2021/09/14 06:40:58;;;;;;;31.55;19.77;;;;;;;13.54;79.73;97487.40;1678673;84;25318;-95
2021/09/14 06:43:24;;;;;;;31.37;20.60;;;;;;;13.60;79.64;97484.63;1710120;83;27378;-94
2021/09/14 06:45:51;;;;;;;30.05;19.52;;;;;;;13.66;79.56;97483.69;1696717;83;25751;-94
2021/09/14 06:48:17;;;;;;;28.05;19.87;;;;;;;13.73;79.58;97485.50;1740514;82;25728;-95
2021/09/14 06:50:44;;;;;;;29.25;20.02;;;;;;;13.80;79.51;97487.58;1740413;82;25776;-96
2021/09/14 06:53:12;;;;;;;31.55;20.35;;;;;;;13.84;79.37;97483.36;1740638;82;25625;-96
2021/09/14 06:55:38;;;;;;;29.60;20.75;;;;;;;13.88;79.28;97486.76;1726843;82;27400;-96
2021/09/14 06:58:05;;;;;;;33.33;20.45;;;;;;;13.92;79.19;97478.43;1726575;81;25733;-94
2021/09/14 07:00:32;;;;;;;34.27;21.25;;;;;;;13.92;79.15;97481.67;1740402;82;25250;-94
2021/09/14 07:02:58;;;;;;;26.42;18.82;;;;;;;13.95;79.22;97484.77;1727232;82;25906;-96
2021/09/14 07:05:25;;;;;;;28.27;19.73;;;;;;;14.02;79.34;97482.77;1740187;82;25790;-96
2021/09/14 07:07:52;;;;;;;29.92;20.75;;;;;;;14.09;79.47;97480.50;1740475;82;27213;-96
2021/09/14 07:10:20;;;;;;;29.63;21.27;;;;;;;14.18;79.56;97480.45;1713345;83;25295;-92
2021/09/14 07:12:46;;;;;;;25.23;19.42;;;;;;;14.28;79.44;97480.72;1709297;83;25495;-94
2021/09/14 07:15:13;;;;;;;23.75;18.37;;;;;;;14.29;79.17;97472.34;1685438;83;25826;-94
2021/09/14 07:17:40;;;;;;;26.48;20.12;;;;;;;14.33;79.16;97480.86;1706593;83;25434;-84
2021/09/14 07:20:08;;;;;;;24.85;19.07;;;;;;;14.42;79.18;97479.48;1693990;83;27524;-93
2021/09/14 07:22:34;;;;;;;23.38;18.48;;;;;;;14.55;79.22;97479.79;1740010;82;25877;-87
2021/09/14 07:25:02;;;;;;;23.67;18.50;;;;;;;14.71;79.14;97477.75;1740330;82;25720;-96
2021/09/14 07:27:29;;;;;;;26.30;18.92;;;;;;;14.86;79.12;97473.17;1740152;82;26750;-95
2021/09/14 07:29:55;;;;;;;25.90;20.02;;;;;;;15.02;78.84;97474.66;1725543;81;25808;-96
2021/09/14 07:32:22;;;;;;;23.67;18.02;;;;;;;15.27;78.86;97475.75;1726180;82;27534;-96
2021/09/14 07:34:48;;;;;;;25.92;19.17;;;;;;;15.61;78.73;97477.28;1725691;81;25792;-95
2021/09/14 07:37:15;;;;;;;24.72;17.87;;;;;;;15.95;78.24;97476.31;1728363;83;25749;-96
2021/09/14 07:39:42;;;;;;;22.77;17.37;;;;;;;16.33;77.93;97482.45;1709711;83;25817;-96
2021/09/14 07:42:08;;;;;;;24.30;17.55;;;;;;;16.65;77.26;97475.95;1716649;82;25809;-96
2021/09/14 07:44:35;;;;;;;20.12;16.70;;;;;;;16.99;76.84;97474.55;1687592;85;27519;-96
2021/09/14 07:47:02;;;;;;;22.67;17.55;;;;;;;17.29;76.37;97477.16;1718276;82;25283;-96
2021/09/14 07:49:28;;;;;;;19.32;17.20;;;;;;;17.55;75.41;97468.77;1698869;82;25826;-95
2021/09/14 07:51:55;;;;;;;20.37;16.77;;;;;;;17.72;75.26;97469.27;1740063;82;25796;-96
2021/09/14 07:54:22;;;;;;;19.92;16.02;;;;;;;18.03;75.24;97472.62;1727516;82;25741;-87
2021/09/14 07:56:48;;;;;;;18.65;16.30;;;;;;;18.28;74.63;97471.51;1739398;82;27544;-92
2021/09/14 07:59:15;;;;;;;18.12;16.20;;;;;;;18.43;74.08;97468.64;1726704;82;25292;-93
2021/09/14 08:01:42;;;;;;;17.87;14.93;;;;;;;18.64;73.88;97469.11;1727208;81;25464;-93
2021/09/14 08:04:08;;;;;;;17.40;15.60;;;;;;;18.98;73.90;97466.90;1727050;82;26180;-92
2021/09/14 08:06:35;;;;;;;18.15;15.80;;;;;;;19.37;73.35;97464.67;1727597;81;25849;-94
2021/09/14 08:09:02;;;;;;;16.55;14.70;;;;;;;19.71;72.68;97461.84;1708087;82;28443;-95
2021/09/14 08:11:28;;;;;;;17.95;15.53;;;;;;;20.05;72.23;97468.23;1725425;81;25979;-93
2021/09/14 08:13:55;;;;;;;16.40;14.53;;;;;;;20.38;71.44;97469.72;1726936;83;25729;-94
2021/09/14 08:16:22;;;;;;;20.32;14.87;;;;;;;20.60;70.69;97466.71;1727447;81;25976;-91
2021/09/14 08:18:49;;;;;;;18.87;14.78;;;;;;;21.22;70.14;97457.36;1726662;82;25793;-94
2021/09/14 08:21:15;;;;;;;16.07;14.38;;;;;;;21.22;70.14;97457.36;1726846;82;28262;-94
2021/09/14 08:23:42;;;;;;;16.62;14.93;;;;;;;21.50;69.26;97458.90;1727235;81;26333;-95
2021/09/14 08:26:09;;;;;;;15.65;13.95;;;;;;;21.77;68.79;97457.14;1727588;82;25512;-89
2021/09/14 08:28:35;;;;;;;16.55;14.40;;;;;;;22.06;68.51;97453.74;1727034;81;25826;-94
2021/09/14 08:31:02;;;;;;;16.35;14.58;;;;;;;22.30;67.40;97450.56;1726993;82;25813;-91
2021/09/14 08:33:28;;;;;;;16.52;14.58;;;;;;;22.35;67.00;97446.94;1729246;78;27630;-83
2021/09/14 08:35:55;;;;;;;15.58;13.53;;;;;;;22.59;66.79;97445.93;1730253;78;25786;-92
2021/09/14 08:38:21;;;;;;;16.45;14.30;;;;;;;22.85;66.18;97448.50;1707968;80;25315;-89
2021/09/14 08:40:48;;;;;;;15.83;14.23;;;;;;;23.05;65.70;97452.45;1701885;83;25686;-96
2021/09/14 08:43:15;;;;;;;15.90;14.13;;;;;;;23.26;65.21;97445.62;1719763;82;25319;-91
2021/09/14 08:45:42;;;;;;;15.72;13.48;;;;;;;23.41;64.36;97443.26;1729399;81;27340;-96
2021/09/14 08:48:10;;;;;;;14.60;13.08;;;;;;;23.52;63.80;97449.50;1730822;82;25287;-96
2021/09/14 08:50:37;;;;;;;13.62;12.23;;;;;;;23.49;62.76;97443.16;1701815;83;25319;-96
2021/09/14 08:53:05;;;;;;;15.83;11.97;;;;;;;23.52;63.12;97445.37;1714877;81;25624;-93
2021/09/14 08:55:37;;;;;;;13.98;11.60;;;;;;;23.59;62.58;97444.45;1728050;81;25259;-96
2021/09/14 08:58:08;;;;;;;;;;;;;;;23.70;62.35;97448.16;1705284;79;27437;-96
2021/09/14 09:00:41;;;;;;;13.45;10.98;;;;;;;23.85;61.11;97441.63;1701900;80;25307;-92
2021/09/14 09:03:08;;;;;;;13.53;10.93;;;;;;;23.91;61.55;97443.19;1702265;79;25215;-91
2021/09/14 09:05:40;;;;;;;11.78;9.95;;;;;;;24.08;61.18;97449.59;1723336;82;25896;-96
2021/09/14 09:08:25;;;;;;;10.08;9.10;;;;;;;24.26;60.75;97446.06;1731867;82;25323;-96
2021/09/14 09:11:07;;;;;;;17.90;9.90;;;;;;;24.46;60.40;97443.55;1730950;83;27613;-94
2021/09/14 09:13:50;;;;;;;11.68;10.45;;;;;;;24.48;60.00;97439.94;1730959;82;25276;-85
2021/09/14 09:16:25;;;;;;;10.65;9.65;;;;;;;24.59;60.10;97442.79;1730696;78;25231;-82
2021/09/14 09:18:58;;;;;;;9.85;8.95;;;;;;;24.80;59.31;97439.69;1731549;81;26463;-96
2021/09/14 09:21:34;;;;;;;8.58;7.75;;;;;;;24.95;58.56;97436.70;1731658;78;25279;-83
2021/09/14 09:24:06;;;;;;;9.38;7.90;;;;;;;25.08;57.98;97435.34;1730280;82;27536;-96
2021/09/14 09:26:37;;;;;;;8.55;7.67;;;;;;;25.16;57.29;97432.44;1727693;81;26164;-96
2021/09/14 09:29:06;;;;;;;8.33;7.53;;;;;;;25.36;56.60;97426.52;1731942;78;25279;-88
2021/09/14 09:31:35;;;;;;;8.70;7.80;;;;;;;25.50;55.78;97432.05;1729015;82;25926;-96
2021/09/14 09:34:08;;;;;;;8.43;7.40;;;;;;;25.60;55.48;97430.45;1729850;78;25272;-92
2021/09/14 09:36:40;;;;;;;10.70;8.15;;;;;;;25.76;55.23;97432.38;1730068;82;27379;-92
2021/09/14 09:39:08;;;;;;;;;;;;;;;25.84;54.84;97431.67;1735026;78;25198;-87
2021/09/14 09:41:38;;;;;;;9.08;7.03;;;;;;;25.88;53.24;97436.00;1731457;79;25236;-92
2021/09/14 09:44:15;;;;;;;14.87;7.83;;;;;;;25.77;54.39;97432.64;1730450;81;25799;-91
2021/09/14 09:46:41;;;;;;;8.80;6.42;;;;;;;25.91;54.03;97426.53;1729169;81;25655;-95
2021/09/14 09:49:10;;;;;;;8.43;6.70;;;;;;;26.08;53.11;97429.45;1730124;83;27595;-93
2021/09/14 09:51:38;;;;;;;7.95;6.53;;;;;;;26.11;52.94;97427.45;1700914;82;25281;-88
2021/09/14 09:54:05;;;;;;;7.00;6.30;;;;;;;26.27;52.47;97425.73;1729158;78;26662;-96
2021/09/14 09:56:33;;;;;;;9.25;6.58;;;;;;;26.39;51.91;97428.80;1729293;82;25696;-86
2021/09/14 09:59:02;;;;;;;8.65;6.50;;;;;;;26.45;51.30;97419.23;1711021;82;25792;-94
2021/09/14 10:01:28;;;;;;;6.60;5.78;;;;;;;26.57;51.42;97419.48;1731159;82;27608;-82
2021/09/14 10:04:13;;;;;;;7.35;6.15;;;;;;;26.70;50.13;97415.84;1743739;81;25172;-96
2021/09/14 10:06:47;;;;;;;6.90;6.30;;;;;;;26.65;50.18;97420.14;1742770;81;25251;-86
2021/09/14 10:09:14;;;;;;;7.97;7.15;;;;;;;26.70;49.82;97418.61;1731884;79;25746;-83
2021/09/14 10:11:41;;;;;;;9.55;6.25;;;;;;;26.50;49.80;97410.25;1742810;80;25753;-91
2021/09/14 10:14:12;;;;;;;6.62;5.97;;;;;;;26.48;49.93;97415.28;1741959;81;26802;-96
2021/09/14 10:16:45;;;;;;;9.00;6.15;;;;;;;26.60;49.33;97406.97;1743354;81;25255;-96
2021/09/14 10:19:27;;;;;;;7.53;6.30;;;;;;;26.60;48.96;97414.72;1731783;82;25526;-96
2021/09/14 10:22:07;;;;;;;6.97;6.00;;;;;;;26.51;48.68;97416.61;1745038;80;25787;-86
2021/09/14 10:24:35;;;;;;;6.80;6.10;;;;;;;26.40;48.29;97419.37;1742349;82;25855;-91
2021/09/14 10:27:07;;;;;;;8.23;6.08;;;;;;;26.32;48.72;97424.28;1740781;81;27599;-87
2021/09/14 10:29:35;;;;;;;7.53;6.85;;;;;;;26.37;49.02;97421.38;1740003;81;25820;-96
2021/09/14 10:32:14;;;;;;;10.13;6.55;;;;;;;26.48;49.28;97422.77;1740132;81;25681;-93
2021/09/14 10:34:56;;;;;;;7.90;6.78;;;;;;;26.45;47.87;97422.81;1739946;81;26386;-96
2021/09/14 10:37:31;;;;;;;8.33;6.60;;;;;;;26.11;48.46;97412.81;1741907;82;25240;-96
2021/09/14 10:40:12;;;;;;;6.72;6.10;;;;;;;25.77;48.87;97412.72;1741929;81;27479;-94
2021/09/14 10:42:47;;;;;;;6.75;6.10;;;;;;;25.55;48.97;97420.09;1742640;81;25323;-96
2021/09/14 10:45:17;;;;;;;7.25;6.53;;;;;;;25.46;48.89;97418.61;1743417;81;25335;-96
2021/09/14 10:47:47;;;;;;;6.97;6.17;;;;;;;25.51;49.40;97416.29;1741960;82;26372;-92
2021/09/14 10:50:30;;;;;;;8.55;7.12;;;;;;;25.53;48.63;97420.39;1741150;81;25761;-96
2021/09/14 10:52:59;;;;;;;6.62;6.03;;;;;;;25.59;48.82;97418.35;1741755;82;27412;-96
2021/09/14 10:55:27;;;;;;;11.73;6.50;;;;;;;25.62;48.58;97419.13;1741132;81;25925;-90
2021/09/14 10:58:01;;;;;;;7.75;6.35;;;;;;;25.68;48.64;97422.06;1741551;81;25295;-94
2021/09/14 11:00:34;;;;;;;7.67;6.87;;;;;;;25.80;48.62;97414.06;1742851;79;25692;-95
2021/09/14 11:03:05;;;;;;;10.45;7.58;;;;;;;25.86;48.20;97419.72;1740273;82;25804;-91
2021/09/14 11:05:35;;;;;;;11.63;7.72;;;;;;;25.86;48.46;97411.42;1740434;81;27410;-92
2021/09/14 11:08:08;;;;;;;8.95;7.17;;;;;;;25.76;48.29;97422.70;1739889;81;25884;-94
2021/09/14 11:10:38;;;;;;;8.93;7.40;;;;;;;25.53;48.56;97422.33;1740062;81;25757;-90
2021/09/14 11:13:07;;;;;;;10.50;8.93;;;;;;;25.24;49.18;97419.88;1740032;81;25780;-92
2021/09/14 11:15:34;;;;;;;8.45;7.65;;;;;;;25.17;49.09;97423.03;1740026;81;25621;-92
2021/09/14 11:18:01;;;;;;;9.35;6.75;;;;;;;25.18;49.37;97417.77;1739994;81;28368;-94
2021/09/14 11:20:30;;;;;;;8.55;7.40;;;;;;;25.01;49.22;97418.90;1739722;81;26373;-92
2021/09/14 11:22:59;;;;;;;7.97;7.17;;;;;;;24.90;49.15;97422.94;1740083;82;25650;-91
2021/09/14 11:25:29;;;;;;;8.10;7.30;;;;;;;24.74;49.45;97416.88;1740038;81;25861;-92
2021/09/14 11:28:08;;;;;;;10.43;7.00;;;;;;;24.73;49.93;97421.58;1740114;81;25717;-93
2021/09/14 11:30:38;;;;;;;8.13;7.30;;;;;;;24.78;50.52;97414.58;1719300;81;27377;-91
2021/09/14 11:33:05;;;;;;;8.15;7.33;;;;;;;24.90;50.68;97413.27;1739971;81;25936;-92
2021/09/14 11:35:35;;;;;;;8.75;7.72;;;;;;;24.94;49.45;97414.34;1739952;81;26458;-92
2021/09/14 11:38:05;;;;;;;8.93;7.17;;;;;;;24.87;49.18;97407.00;1739965;81;26314;-91
2021/09/14 11:40:35;;;;;;;8.43;7.12;;;;;;;24.92;49.76;97410.47;1739970;81;25908;-86
2021/09/14 11:43:04;;;;;;;8.83;7.17;;;;;;;24.91;48.98;97409.39;1739674;81;28310;-94
2021/09/14 11:45:32;;;;;;;9.85;7.78;;;;;;;24.96;49.13;97404.64;1739714;81;25659;-93
2021/09/14 11:48:01;;;;;;;8.08;7.28;;;;;;;25.02;49.21;97403.97;1740074;81;25790;-93
2021/09/14 11:50:34;;;;;;;8.25;7.33;;;;;;;25.08;49.21;97400.01;1740104;82;25864;-93
2021/09/14 11:53:11;;;;;;;7.78;7.03;;;;;;;25.12;49.12;97399.08;1740049;81;25829;-94
2021/09/14 11:55:47;;;;;;;8.85;7.75;;;;;;;25.20;48.66;97400.33;1739749;81;27379;-93
2021/09/14 11:58:18;;;;;;;8.48;7.58;;;;;;;25.26;48.83;97398.27;1739892;81;26026;-88
2021/09/14 12:00:47;;;;;;;8.55;7.58;;;;;;;25.31;48.43;97396.23;1738227;81;25775;-93
2021/09/14 12:03:21;;;;;;;8.00;7.15;;;;;;;25.36;48.75;97397.50;1740027;81;26283;-92
2021/09/14 12:05:55;;;;;;;8.55;7.67;;;;;;;25.44;48.83;97397.37;1740113;81;25721;-92
2021/09/14 12:08:40;;;;;;;8.63;7.65;;;;;;;25.48;48.54;97396.42;1739979;82;27453;-88
2021/09/14 12:11:08;;;;;;;7.87;7.05;;;;;;;25.49;48.92;97399.45;1724386;81;25812;-91
2021/09/14 12:13:44;;;;;;;8.30;7.50;;;;;;;25.26;49.04;97401.03;1726105;82;25796;-93
2021/09/14 12:16:24;;;;;;;7.75;6.83;;;;;;;25.28;49.43;97392.70;1726418;81;25947;-91
2021/09/14 12:18:45;;;;;;;7.83;7.12;;;;;;;25.17;48.71;97395.41;1738900;82;25859;-92
2021/09/14 12:21:12;;;;;;;8.48;7.42;;;;;;;24.92;48.82;97398.61;1739981;82;27303;-93
2021/09/14 12:23:39;;;;;;;7.45;6.75;;;;;;;24.69;49.45;97398.45;1740029;82;25697;-92
2021/09/14 12:26:28;;;;;;;8.40;7.60;;;;;;;24.77;50.14;97401.89;1740027;82;25736;-96